Time;durP1;ratioP1;P1;durP2;ratioP2;P2;SDS_P1;SDS_P2;PMS_P1;PMS_P2;Temp;Humidity;BMP_temperature;BMP_pressure;BME280_temperature;BME280_humidity;BME280_pressure;Samples;Min_cycle;Max_cycle;Signal;HPM_P1;HPM_P2
2022/11/14 00:01:19;;;;;;;23.95;8.07;;;;;;;;;;2087149;28;20033;-73
2022/11/14 00:02:38;;;;;;;18.13;8.25;;;;;;;;;;2090333;28;20123;-73
2022/11/14 00:03:57;;;;;;;23.25;8.43;;;;;;;;;;2091031;28;20044;-74
2022/11/14 00:05:16;;;;;;;27.73;8.35;;;;;;;;;;2091027;28;20034;-75
2022/11/14 00:06:35;;;;;;;35.75;9.05;;;;;;;;;;2089754;28;20115;-73
2022/11/14 00:07:54;;;;;;;22.48;8.38;;;;;;;;;;2090101;28;20033;-73
2022/11/14 00:09:13;;;;;;;29.25;9.13;;;;;;;;;;2087062;28;20414;-74
2022/11/14 00:10:32;;;;;;;18.63;9.15;;;;;;;;;;2089199;28;20037;-74
2022/11/14 00:11:51;;;;;;;18.17;9.25;;;;;;;;;;2090781;28;20033;-73
2022/11/14 00:13:09;;;;;;;17.77;9.70;;;;;;;;;;2091488;28;20028;-73
2022/11/14 00:14:28;;;;;;;21.55;10.15;;;;;;;;;;2089545;28;20041;-73
2022/11/14 00:15:49;;;;;;;31.50;12.90;;;;;;;;;;2091390;28;20043;-74
2022/11/14 00:17:08;;;;;;;21.60;12.23;;;;;;;;;;2089742;28;20033;-73
2022/11/14 00:18:27;;;;;;;19.17;9.55;;;;;;;;;;2090800;28;20037;-74
2022/11/14 00:19:46;;;;;;;19.30;8.55;;;;;;;;;;2090875;28;21836;-74
2022/11/14 00:21:05;;;;;;;19.95;8.80;;;;;;;;;;2092928;28;20025;-74
2022/11/14 00:22:24;;;;;;;22.92;9.68;;;;;;;;;;2093752;28;20025;-74
2022/11/14 00:23:43;;;;;;;18.10;8.35;;;;;;;;;;2093420;28;20478;-74
2022/11/14 00:25:02;;;;;;;15.75;8.32;;;;;;;;;;2092320;28;20033;-74
2022/11/14 00:26:21;;;;;;;18.42;8.57;;;;;;;;;;2093740;28;20029;-73
2022/11/14 00:27:40;;;;;;;17.95;8.55;;;;;;;;;;2093139;28;20025;-73
2022/11/14 00:28:59;;;;;;;19.65;8.02;;;;;;;;;;2092477;28;20029;-73
2022/11/14 00:30:18;;;;;;;13.25;7.50;;;;;;;;;;2092854;28;20439;-73
2022/11/14 00:31:37;;;;;;;17.70;8.02;;;;;;;;;;2094111;28;20020;-73
2022/11/14 00:32:56;;;;;;;16.08;7.30;;;;;;;;;;2092216;28;20021;-73
2022/11/14 00:34:15;;;;;;;10.82;6.70;;;;;;;;;;2094001;28;20036;-73
2022/11/14 00:35:34;;;;;;;14.65;7.25;;;;;;;;;;2092937;28;20025;-73
2022/11/14 00:36:53;;;;;;;16.90;7.50;;;;;;;;;;2093940;28;20029;-73
2022/11/14 00:38:13;;;;;;;14.20;7.90;;;;;;;;;;2092531;28;20501;-73
2022/11/14 00:39:32;;;;;;;15.75;8.60;;;;;;;;;;2090062;28;20025;-73
2022/11/14 00:40:51;;;;;;;15.90;7.40;;;;;;;;;;2094198;28;20037;-72
2022/11/14 00:42:10;;;;;;;14.70;7.72;;;;;;;;;;2091004;28;20036;-73
2022/11/14 00:43:29;;;;;;;14.15;7.07;;;;;;;;;;2092271;28;20049;-73
2022/11/14 00:44:48;;;;;;;16.48;8.27;;;;;;;;;;2091075;28;20598;-73
2022/11/14 00:46:07;;;;;;;15.95;8.57;;;;;;;;;;2093371;28;20415;-73
2022/11/14 00:47:26;;;;;;;15.70;8.35;;;;;;;;;;2093038;28;20477;-73
2022/11/14 00:48:45;;;;;;;19.35;8.95;;;;;;;;;;2094161;28;20021;-73
2022/11/14 00:50:05;;;;;;;18.40;9.15;;;;;;;;;;2090459;28;20028;-73
2022/11/14 00:51:24;;;;;;;17.73;8.88;;;;;;;;;;2091164;28;20108;-73
2022/11/14 00:52:42;;;;;;;16.13;9.18;;;;;;;;;;2093050;28;20128;-73
2022/11/14 00:54:01;;;;;;;13.93;8.27;;;;;;;;;;2094183;28;20020;-73
2022/11/14 00:55:20;;;;;;;15.80;8.68;;;;;;;;;;2091832;28;20032;-73
2022/11/14 00:56:39;;;;;;;14.88;8.40;;;;;;;;;;2093151;28;20021;-73
2022/11/14 00:57:58;;;;;;;18.23;9.25;;;;;;;;;;2093091;28;20119;-73
2022/11/14 00:59:17;;;;;;;18.08;9.77;;;;;;;;;;2090306;28;20041;-73
2022/11/14 01:33:41;;;;;;;16.42;7.75;;;;;;;;;;2089987;28;20587;-74
2022/11/14 01:35:00;;;;;;;15.07;7.35;;;;;;;;;;2088133;28;20028;-73
2022/11/14 01:36:20;;;;;;;17.10;8.50;;;;;;;;;;2081661;28;20056;-73
2022/11/14 01:37:39;;;;;;;12.68;7.82;;;;;;;;;;2086090;28;20083;-73
2022/11/14 01:38:58;;;;;;;15.48;8.93;;;;;;;;;;2092204;28;20029;-73
2022/11/14 01:40:17;;;;;;;15.38;8.52;;;;;;;;;;2090319;28;20029;-74
2022/11/14 01:41:36;;;;;;;17.55;8.43;;;;;;;;;;2090704;28;20029;-73
2022/11/14 01:43:14;;;;;;;14.75;8.05;;;;;;;;;;2092416;28;20029;-73
2022/11/14 01:44:51;;;;;;;12.70;7.13;;;;;;;;;;2088687;28;20040;-73
2022/11/14 01:46:22;;;;;;;18.55;7.38;;;;;;;;;;2090155;28;20074;-73
2022/11/14 01:47:41;;;;;;;17.17;7.75;;;;;;;;;;2090847;28;20131;-74
2022/11/14 01:49:02;;;;;;;14.18;8.43;;;;;;;;;;2089667;28;20033;-73
2022/11/14 01:50:21;;;;;;;16.10;7.85;;;;;;;;;;2092547;28;20024;-74
2022/11/14 01:51:42;;;;;;;16.65;7.93;;;;;;;;;;2087451;28;20389;-73
2022/11/14 01:53:01;;;;;;;15.40;8.70;;;;;;;;;;2089149;28;20111;-72
2022/11/14 01:54:26;;;;;;;17.73;8.38;;;;;;;;;;2092995;28;20029;-72
2022/11/14 01:55:46;;;;;;;18.38;8.52;;;;;;;;;;2089774;28;20037;-73
2022/11/14 01:57:06;;;;;;;15.68;8.48;;;;;;;;;;2091068;28;20029;-73
2022/11/14 01:58:26;;;;;;;19.55;7.70;;;;;;;;;;2090447;28;20033;-72
2022/11/14 01:59:48;;;;;;;19.88;9.07;;;;;;;;;;2093117;28;20036;-73
2022/11/14 02:01:08;;;;;;;14.90;8.32;;;;;;;;;;2088658;28;20033;-73
2022/11/14 02:02:26;;;;;;;15.98;10.07;;;;;;;;;;2090527;28;20029;-73
2022/11/14 02:03:48;;;;;;;18.67;9.25;;;;;;;;;;2089456;28;20032;-74
2022/11/14 02:05:11;;;;;;;14.70;9.18;;;;;;;;;;2090996;28;20482;-72
2022/11/14 02:06:32;;;;;;;18.38;9.85;;;;;;;;;;2090588;28;20163;-73
2022/11/14 02:07:51;;;;;;;17.55;8.75;;;;;;;;;;2091938;28;20033;-73
2022/11/14 02:09:10;;;;;;;17.23;9.18;;;;;;;;;;2090369;28;20400;-74
2022/11/14 02:10:29;;;;;;;19.02;10.25;;;;;;;;;;2090617;28;20029;-73
2022/11/14 02:11:49;;;;;;;16.33;10.68;;;;;;;;;;2091737;28;20068;-74
2022/11/14 02:13:08;;;;;;;22.65;10.93;;;;;;;;;;2090653;28;20347;-74
2022/11/14 02:14:27;;;;;;;20.02;11.13;;;;;;;;;;2089220;28;20041;-73
2022/11/14 02:15:46;;;;;;;20.20;10.48;;;;;;;;;;2090247;28;20053;-73
2022/11/14 02:17:05;;;;;;;20.25;11.23;;;;;;;;;;2088972;28;20024;-73
2022/11/14 02:18:24;;;;;;;24.88;11.95;;;;;;;;;;2091321;28;20030;-73
2022/11/14 02:19:44;;;;;;;23.52;12.20;;;;;;;;;;2092738;28;20037;-74
2022/11/14 02:21:03;;;;;;;25.35;13.15;;;;;;;;;;2091872;28;20021;-74
2022/11/14 02:22:22;;;;;;;19.75;11.90;;;;;;;;;;2091308;28;20032;-73
2022/11/14 02:23:41;;;;;;;32.35;13.77;;;;;;;;;;2088076;28;20059;-73
2022/11/14 02:25:01;;;;;;;24.95;12.98;;;;;;;;;;2090344;28;20424;-73
2022/11/14 02:26:20;;;;;;;22.05;12.05;;;;;;;;;;2086903;28;20025;-73
2022/11/14 02:27:40;;;;;;;25.77;12.18;;;;;;;;;;2092302;28;20037;-73
2022/11/14 02:28:59;;;;;;;23.55;12.85;;;;;;;;;;2091488;28;20091;-73
2022/11/14 02:30:19;;;;;;;23.30;11.85;;;;;;;;;;2091424;28;20036;-73
2022/11/14 02:31:38;;;;;;;30.45;11.90;;;;;;;;;;2087999;28;20052;-72
2022/11/14 02:32:57;;;;;;;20.20;11.35;;;;;;;;;;2091349;28;20494;-73
2022/11/14 02:34:18;;;;;;;26.17;11.90;;;;;;;;;;2085917;28;20060;-73
2022/11/14 02:35:38;;;;;;;22.33;11.95;;;;;;;;;;2090203;28;20033;-73
2022/11/14 02:36:57;;;;;;;22.80;12.43;;;;;;;;;;2091118;28;20033;-73
2022/11/14 02:38:16;;;;;;;25.70;12.63;;;;;;;;;;2089238;28;20033;-73
2022/11/14 02:39:35;;;;;;;21.48;11.48;;;;;;;;;;2089445;28;20024;-73
2022/11/14 02:40:54;;;;;;;24.00;12.13;;;;;;;;;;2092246;28;20468;-73
2022/11/14 02:42:13;;;;;;;23.25;12.15;;;;;;;;;;2090338;28;20041;-72
2022/11/14 02:43:32;;;;;;;29.67;12.65;;;;;;;;;;2086416;28;20028;-71
2022/11/14 02:44:51;;;;;;;23.98;13.43;;;;;;;;;;2092251;28;20405;-71
2022/11/14 02:46:10;;;;;;;23.02;12.50;;;;;;;;;;2091316;28;20036;-71
2022/11/14 02:47:29;;;;;;;27.67;13.65;;;;;;;;;;2086505;28;20030;-71
2022/11/14 02:48:48;;;;;;;29.50;13.27;;;;;;;;;;2091461;28;20025;-71
2022/11/14 02:50:07;;;;;;;22.08;11.60;;;;;;;;;;2090924;28;20619;-71
2022/11/14 02:51:26;;;;;;;24.85;11.02;;;;;;;;;;2090695;28;20100;-72
2022/11/14 02:52:45;;;;;;;21.33;13.40;;;;;;;;;;2091280;28;20029;-72
2022/11/14 02:54:04;;;;;;;20.90;11.75;;;;;;;;;;2090374;28;20033;-72
2022/11/14 02:55:23;;;;;;;24.27;11.95;;;;;;;;;;2090887;28;20057;-72
2022/11/14 02:56:42;;;;;;;26.67;12.82;;;;;;;;;;2091903;28;20434;-72
2022/11/14 02:58:01;;;;;;;23.75;14.23;;;;;;;;;;2091397;28;20405;-72
2022/11/14 02:59:19;;;;;;;27.17;13.73;;;;;;;;;;2092393;28;20033;-71
2022/11/14 03:00:39;;;;;;;22.00;13.52;;;;;;;;;;2084942;28;20028;-71
2022/11/14 03:01:58;;;;;;;23.02;12.88;;;;;;;;;;2090578;28;20394;-71
2022/11/14 03:03:17;;;;;;;31.40;14.63;;;;;;;;;;2090531;28;20025;-71
2022/11/14 03:04:36;;;;;;;23.05;14.75;;;;;;;;;;2091425;28;20033;-71
2022/11/14 03:06:02;;;;;;;29.33;15.10;;;;;;;;;;2091450;28;20024;-72
2022/11/14 03:07:20;;;;;;;27.25;14.82;;;;;;;;;;2090568;28;20045;-71
2022/11/14 03:08:39;;;;;;;24.25;12.70;;;;;;;;;;2089535;28;20107;-71
2022/11/14 03:09:58;;;;;;;21.35;12.98;;;;;;;;;;2089051;28;20080;-72
2022/11/14 03:11:17;;;;;;;27.88;13.90;;;;;;;;;;2090221;28;20033;-72
2022/11/14 03:12:36;;;;;;;23.92;12.65;;;;;;;;;;2088855;28;20037;-71
2022/11/14 03:13:55;;;;;;;23.30;13.10;;;;;;;;;;2089556;28;20021;-74
2022/11/14 03:15:14;;;;;;;31.13;15.55;;;;;;;;;;2091314;28;20489;-71
2022/11/14 03:16:33;;;;;;;26.83;14.00;;;;;;;;;;2088261;28;22429;-72
2022/11/14 03:17:53;;;;;;;28.77;15.32;;;;;;;;;;2090106;28;20033;-71
2022/11/14 03:19:12;;;;;;;27.17;13.50;;;;;;;;;;2090466;28;20033;-71
2022/11/14 03:20:31;;;;;;;25.35;15.23;;;;;;;;;;2091556;28;20017;-71
2022/11/14 03:21:50;;;;;;;31.58;14.30;;;;;;;;;;2091719;28;20029;-71
2022/11/14 03:23:09;;;;;;;26.63;14.07;;;;;;;;;;2089409;28;20033;-71
2022/11/14 03:24:28;;;;;;;30.13;14.50;;;;;;;;;;2087543;28;20116;-71
2022/11/14 03:25:47;;;;;;;31.05;16.48;;;;;;;;;;2090064;28;20021;-72
2022/11/14 03:27:06;;;;;;;27.63;15.73;;;;;;;;;;2089795;28;20044;-71
2022/11/14 03:28:25;;;;;;;29.95;15.15;;;;;;;;;;2092165;28;20393;-72
2022/11/14 03:29:44;;;;;;;23.33;13.20;;;;;;;;;;2089914;28;20025;-72
2022/11/14 03:31:03;;;;;;;21.60;14.77;;;;;;;;;;2091556;28;20025;-72
2022/11/14 03:32:21;;;;;;;26.05;14.45;;;;;;;;;;2092989;28;20048;-73
2022/11/14 03:33:40;;;;;;;30.42;16.00;;;;;;;;;;2089860;28;20041;-73
2022/11/14 03:34:59;;;;;;;22.85;12.73;;;;;;;;;;2090690;28;20564;-72
2022/11/14 03:36:18;;;;;;;34.72;17.05;;;;;;;;;;2091655;28;20485;-73
2022/11/14 03:37:37;;;;;;;27.20;15.13;;;;;;;;;;2090569;28;20033;-73
2022/11/14 03:38:55;;;;;;;26.38;15.25;;;;;;;;;;2089703;28;20033;-73
2022/11/14 03:40:15;;;;;;;26.08;13.68;;;;;;;;;;2091269;28;20473;-73
2022/11/14 03:41:34;;;;;;;22.20;13.45;;;;;;;;;;2091041;28;20025;-73
2022/11/14 03:42:52;;;;;;;23.27;14.07;;;;;;;;;;2089624;28;20095;-73
2022/11/14 03:44:11;;;;;;;22.20;14.27;;;;;;;;;;2090652;28;20033;-73
2022/11/14 03:45:30;;;;;;;29.45;14.98;;;;;;;;;;2091240;28;20025;-73
2022/11/14 03:46:50;;;;;;;24.15;12.55;;;;;;;;;;2090436;28;20025;-73
2022/11/14 03:48:09;;;;;;;19.90;12.45;;;;;;;;;;2087489;28;20096;-73
2022/11/14 03:49:28;;;;;;;23.58;11.65;;;;;;;;;;2093097;28;20037;-73
2022/11/14 03:50:48;;;;;;;21.05;11.50;;;;;;;;;;2092506;28;20070;-73
2022/11/14 03:52:07;;;;;;;19.98;13.05;;;;;;;;;;2090669;28;21676;-73
2022/11/14 03:53:27;;;;;;;18.60;11.65;;;;;;;;;;2090390;28;20036;-73
2022/11/14 03:54:45;;;;;;;18.40;11.77;;;;;;;;;;2088259;28;20029;-74
2022/11/14 03:56:04;;;;;;;17.60;11.00;;;;;;;;;;2091706;28;20180;-73
2022/11/14 03:57:23;;;;;;;15.45;10.80;;;;;;;;;;2092011;28;20029;-73
2022/11/14 03:58:42;;;;;;;20.38;11.43;;;;;;;;;;2092507;28;20037;-73
2022/11/14 04:00:01;;;;;;;26.00;11.63;;;;;;;;;;2091892;28;20036;-73
2022/11/14 04:01:20;;;;;;;20.02;11.32;;;;;;;;;;2090978;28;20056;-73
2022/11/14 04:02:39;;;;;;;19.58;11.18;;;;;;;;;;2094033;28;20033;-70
2022/11/14 04:03:58;;;;;;;17.48;10.50;;;;;;;;;;2089184;28;20033;-71
2022/11/14 04:05:17;;;;;;;20.08;10.73;;;;;;;;;;2092350;28;20033;-70
2022/11/14 04:06:36;;;;;;;22.83;11.63;;;;;;;;;;2091437;28;20033;-70
2022/11/14 04:07:55;;;;;;;23.58;11.73;;;;;;;;;;2092499;28;20056;-71
2022/11/14 04:09:14;;;;;;;17.95;11.77;;;;;;;;;;2093613;28;20060;-71
2022/11/14 04:10:33;;;;;;;15.77;11.27;;;;;;;;;;2090267;28;20033;-70
2022/11/14 04:11:52;;;;;;;18.80;11.43;;;;;;;;;;2094060;28;20036;-70
2022/11/14 04:13:11;;;;;;;19.20;10.73;;;;;;;;;;2091126;28;20036;-70
2022/11/14 04:14:29;;;;;;;14.60;10.93;;;;;;;;;;2091828;28;20029;-70
2022/11/14 04:15:58;;;;;;;20.35;10.52;;;;;;;;;;2091268;28;20040;-71
2022/11/14 04:17:17;;;;;;;17.08;10.38;;;;;;;;;;2090839;28;20112;-70
2022/11/14 04:18:36;;;;;;;21.85;10.18;;;;;;;;;;2091147;28;20112;-70
2022/11/14 04:19:55;;;;;;;18.45;10.70;;;;;;;;;;2091257;28;20033;-71
2022/11/14 04:21:14;;;;;;;19.77;10.52;;;;;;;;;;2093812;28;20029;-70
2022/11/14 04:22:33;;;;;;;21.00;11.10;;;;;;;;;;2092815;28;20017;-70
2022/11/14 04:23:52;;;;;;;21.92;11.13;;;;;;;;;;2091517;28;20029;-70
2022/11/14 04:25:11;;;;;;;15.18;10.90;;;;;;;;;;2090559;28;20037;-70
2022/11/14 04:26:29;;;;;;;15.18;10.75;;;;;;;;;;2092648;28;20064;-70
2022/11/14 04:27:48;;;;;;;23.27;11.60;;;;;;;;;;2092024;28;20033;-70
2022/11/14 04:29:07;;;;;;;21.70;10.52;;;;;;;;;;2090291;28;20397;-70
2022/11/14 04:30:26;;;;;;;20.15;11.27;;;;;;;;;;2087859;28;20028;-70
2022/11/14 04:31:45;;;;;;;24.60;10.77;;;;;;;;;;2092944;28;20025;-70
2022/11/14 04:33:04;;;;;;;21.05;11.02;;;;;;;;;;2092530;28;20465;-70
2022/11/14 04:34:23;;;;;;;18.77;10.32;;;;;;;;;;2090086;28;20068;-70
2022/11/14 04:35:41;;;;;;;20.15;10.55;;;;;;;;;;2092015;28;20025;-70
2022/11/14 04:37:00;;;;;;;20.55;9.98;;;;;;;;;;2091827;28;20108;-70
2022/11/14 04:38:20;;;;;;;18.00;10.18;;;;;;;;;;2092593;28;20036;-70
2022/11/14 04:39:39;;;;;;;18.95;9.40;;;;;;;;;;2092003;28;20037;-70
2022/11/14 04:40:58;;;;;;;16.63;10.27;;;;;;;;;;2093173;28;20071;-71
2022/11/14 04:42:16;;;;;;;24.75;10.40;;;;;;;;;;2089930;28;21353;-71
2022/11/14 04:43:36;;;;;;;17.80;10.10;;;;;;;;;;2092294;28;20045;-71
2022/11/14 04:44:54;;;;;;;20.90;10.55;;;;;;;;;;2088832;28;20076;-71
2022/11/14 04:46:13;;;;;;;21.92;10.32;;;;;;;;;;2092085;28;20032;-71
2022/11/14 04:47:32;;;;;;;20.33;10.82;;;;;;;;;;2089887;28;20059;-71
2022/11/14 04:48:51;;;;;;;19.38;10.43;;;;;;;;;;2090765;28;20020;-71
2022/11/14 04:50:10;;;;;;;24.63;10.65;;;;;;;;;;2092199;28;20536;-71
2022/11/14 04:51:29;;;;;;;23.85;10.38;;;;;;;;;;2094027;28;20036;-71
2022/11/14 04:52:50;;;;;;;17.88;10.80;;;;;;;;;;2092154;28;20817;-71
2022/11/14 04:54:09;;;;;;;21.17;10.70;;;;;;;;;;2092695;28;20096;-71
2022/11/14 04:55:28;;;;;;;23.75;11.07;;;;;;;;;;2091752;28;20482;-71
2022/11/14 04:56:47;;;;;;;20.65;10.98;;;;;;;;;;2092960;28;20037;-71
2022/11/14 04:58:05;;;;;;;22.27;10.52;;;;;;;;;;2091266;28;20120;-71
2022/11/14 04:59:25;;;;;;;21.35;11.32;;;;;;;;;;2087019;28;20037;-71
2022/11/14 05:00:44;;;;;;;25.63;10.95;;;;;;;;;;2088155;28;20032;-71
2022/11/14 05:02:03;;;;;;;21.98;11.18;;;;;;;;;;2094146;28;20030;-71
2022/11/14 05:03:23;;;;;;;21.92;11.70;;;;;;;;;;2093691;28;20032;-71
2022/11/14 05:04:44;;;;;;;25.65;12.23;;;;;;;;;;2091880;28;20021;-71
2022/11/14 05:06:03;;;;;;;25.92;11.60;;;;;;;;;;2093169;28;20028;-72
2022/11/14 05:07:22;;;;;;;18.00;10.77;;;;;;;;;;2091371;28;20048;-71
2022/11/14 05:08:41;;;;;;;24.38;12.05;;;;;;;;;;2091572;28;20492;-71
2022/11/14 05:10:00;;;;;;;19.58;10.82;;;;;;;;;;2091572;28;20032;-71
2022/11/14 05:11:19;;;;;;;22.83;10.38;;;;;;;;;;2090431;28;20036;-71
2022/11/14 05:12:38;;;;;;;23.25;11.50;;;;;;;;;;2089046;28;20068;-72
2022/11/14 05:13:56;;;;;;;17.70;9.82;;;;;;;;;;2089551;28;20044;-71
2022/11/14 05:15:16;;;;;;;25.05;10.88;;;;;;;;;;2088386;28;20045;-71
2022/11/14 05:16:37;;;;;;;19.98;10.05;;;;;;;;;;2090009;28;20116;-71
2022/11/14 05:17:57;;;;;;;21.70;9.43;;;;;;;;;;2092277;28;20474;-72
2022/11/14 05:19:15;;;;;;;27.25;11.95;;;;;;;;;;2090066;28;20628;-71
2022/11/14 05:20:34;;;;;;;18.55;8.30;;;;;;;;;;2090177;28;20420;-71
2022/11/14 05:21:53;;;;;;;19.10;9.18;;;;;;;;;;2084998;28;20025;-71
2022/11/14 05:23:17;;;;;;;14.82;7.88;;;;;;;;;;2091752;28;20028;-71
2022/11/14 05:24:36;;;;;;;10.60;6.90;;;;;;;;;;2089638;28;20036;-71
2022/11/14 05:25:59;;;;;;;14.30;7.40;;;;;;;;;;2088755;28;20452;-71
2022/11/14 05:27:18;;;;;;;16.58;8.32;;;;;;;;;;2093072;28;20057;-72
2022/11/14 05:28:37;;;;;;;12.35;7.35;;;;;;;;;;2090833;28;20017;-72
2022/11/14 05:29:56;;;;;;;19.88;8.60;;;;;;;;;;2090346;28;20028;-72
2022/11/14 05:31:16;;;;;;;16.83;8.50;;;;;;;;;;2090967;28;20036;-72
2022/11/14 05:32:35;;;;;;;17.70;7.63;;;;;;;;;;2092708;28;20494;-72
2022/11/14 05:33:54;;;;;;;19.45;7.97;;;;;;;;;;2093105;28;20112;-72
2022/11/14 05:35:13;;;;;;;14.82;7.97;;;;;;;;;;2090836;28;20033;-72
2022/11/14 05:36:32;;;;;;;18.77;7.75;;;;;;;;;;2090316;28;20393;-72
2022/11/14 05:37:51;;;;;;;14.02;7.50;;;;;;;;;;2089965;28;20108;-71
2022/11/14 05:39:10;;;;;;;16.23;7.68;;;;;;;;;;2092170;28;20468;-72
2022/11/14 05:40:29;;;;;;;14.85;7.43;;;;;;;;;;2091363;28;20033;-71
2022/11/14 05:41:48;;;;;;;14.90;7.70;;;;;;;;;;2090723;28;20026;-70
2022/11/14 05:43:07;;;;;;;16.85;7.53;;;;;;;;;;2085691;28;20028;-71
2022/11/14 05:44:26;;;;;;;17.08;7.50;;;;;;;;;;2090654;28;20397;-70
2022/11/14 05:45:45;;;;;;;18.25;7.43;;;;;;;;;;2088563;28;20037;-75
2022/11/14 05:47:04;;;;;;;15.80;7.72;;;;;;;;;;2091797;28;20033;-71
2022/11/14 05:48:23;;;;;;;14.88;8.13;;;;;;;;;;2091825;28;20437;-72
2022/11/14 05:49:42;;;;;;;17.05;8.10;;;;;;;;;;2092762;28;20482;-72
2022/11/14 05:51:02;;;;;;;13.15;7.82;;;;;;;;;;2092249;28;20029;-71
2022/11/14 05:52:22;;;;;;;11.80;7.78;;;;;;;;;;2089083;28;20044;-72
2022/11/14 05:53:40;;;;;;;14.25;7.55;;;;;;;;;;2091171;28;20038;-71
2022/11/14 05:54:59;;;;;;;14.82;7.70;;;;;;;;;;2091835;28;20037;-72
2022/11/14 05:56:18;;;;;;;15.95;8.80;;;;;;;;;;2092108;28;20048;-72
2022/11/14 05:57:37;;;;;;;11.27;7.57;;;;;;;;;;2092017;28;20025;-72
2022/11/14 05:58:56;;;;;;;15.27;7.95;;;;;;;;;;2090752;28;20032;-73
2022/11/14 06:00:15;;;;;;;16.17;7.00;;;;;;;;;;2088565;28;20371;-71
2022/11/14 06:01:34;;;;;;;10.05;6.97;;;;;;;;;;2090374;28;20033;-71
2022/11/14 06:02:54;;;;;;;13.20;6.88;;;;;;;;;;2090439;28;20016;-71
2022/11/14 06:04:16;;;;;;;12.73;8.05;;;;;;;;;;2090984;28;20029;-71
2022/11/14 06:05:35;;;;;;;14.00;7.10;;;;;;;;;;2092053;28;20513;-71
2022/11/14 06:06:54;;;;;;;13.30;7.03;;;;;;;;;;2089852;28;20262;-72
2022/11/14 06:08:13;;;;;;;14.50;7.68;;;;;;;;;;2092268;28;20025;-72
2022/11/14 06:09:32;;;;;;;15.25;7.57;;;;;;;;;;2092575;28;20028;-72
2022/11/14 06:10:51;;;;;;;12.82;8.13;;;;;;;;;;2089003;28;20032;-72
2022/11/14 06:12:10;;;;;;;11.32;6.93;;;;;;;;;;2089757;28;20041;-72
2022/11/14 06:13:29;;;;;;;9.02;6.90;;;;;;;;;;2087618;28;20037;-71
2022/11/14 06:14:48;;;;;;;11.60;6.85;;;;;;;;;;2091003;28;20048;-71
2022/11/14 06:16:11;;;;;;;13.05;7.45;;;;;;;;;;2085992;28;20381;-72
2022/11/14 06:17:31;;;;;;;12.98;6.97;;;;;;;;;;2090254;28;20033;-71
2022/11/14 06:18:53;;;;;;;14.20;7.25;;;;;;;;;;2088369;28;20033;-71
2022/11/14 06:20:12;;;;;;;14.57;7.18;;;;;;;;;;2089345;28;20037;-71
2022/11/14 06:21:31;;;;;;;11.20;7.28;;;;;;;;;;2086447;28;20028;-71
2022/11/14 06:22:52;;;;;;;13.60;7.03;;;;;;;;;;2091252;28;20500;-72
2022/11/14 06:24:11;;;;;;;14.82;8.13;;;;;;;;;;2080433;28;20033;-71
2022/11/14 06:25:30;;;;;;;15.85;8.18;;;;;;;;;;2084160;28;20439;-71
2022/11/14 06:26:49;;;;;;;18.75;8.30;;;;;;;;;;2089957;28;20108;-72
2022/11/14 06:28:08;;;;;;;14.32;8.07;;;;;;;;;;2090119;28;20505;-72
2022/11/14 06:29:27;;;;;;;16.17;8.18;;;;;;;;;;2090432;28;20122;-72
2022/11/14 06:30:46;;;;;;;12.35;7.90;;;;;;;;;;2088785;28;20068;-71
2022/11/14 06:32:05;;;;;;;16.95;7.97;;;;;;;;;;2092341;28;20060;-71
2022/11/14 06:33:25;;;;;;;15.73;8.00;;;;;;;;;;2090004;28;20485;-71
2022/11/14 06:34:45;;;;;;;15.93;8.27;;;;;;;;;;2091302;28;20075;-71
2022/11/14 06:36:04;;;;;;;18.17;8.35;;;;;;;;;;2088822;28;20194;-71
2022/11/14 06:37:23;;;;;;;15.52;7.32;;;;;;;;;;2092233;28;20040;-72
2022/11/14 06:38:43;;;;;;;11.35;8.52;;;;;;;;;;2090833;28;20028;-73
2022/11/14 06:40:02;;;;;;;14.25;7.65;;;;;;;;;;2088991;28;20029;-71
2022/11/14 06:41:21;;;;;;;16.75;8.35;;;;;;;;;;2088665;28;20028;-73
2022/11/14 06:42:40;;;;;;;16.02;8.13;;;;;;;;;;2091375;28;20029;-71
2022/11/14 06:43:58;;;;;;;14.43;8.13;;;;;;;;;;2091906;28;20037;-72
2022/11/14 06:45:17;;;;;;;11.98;7.00;;;;;;;;;;2086860;28;20028;-71
2022/11/14 06:46:36;;;;;;;15.60;7.45;;;;;;;;;;2087939;28;20036;-71
2022/11/14 06:47:58;;;;;;;9.50;6.43;;;;;;;;;;2092099;28;20481;-72
2022/11/14 06:49:18;;;;;;;9.50;5.53;;;;;;;;;;2092135;28;20442;-71
2022/11/14 06:50:36;;;;;;;9.95;6.05;;;;;;;;;;2089933;28;20029;-71
2022/11/14 06:51:56;;;;;;;6.32;5.28;;;;;;;;;;2091081;28;20111;-71
2022/11/14 06:53:14;;;;;;;8.65;5.68;;;;;;;;;;2093228;28;20511;-72
2022/11/14 06:54:34;;;;;;;7.20;4.53;;;;;;;;;;2091598;28;20032;-71
2022/11/14 06:55:53;;;;;;;7.25;5.30;;;;;;;;;;2089976;28;20401;-71
2022/11/14 06:57:12;;;;;;;7.68;4.72;;;;;;;;;;2091360;28;20048;-71
2022/11/14 06:58:32;;;;;;;10.00;5.32;;;;;;;;;;2088125;28;20028;-70
2022/11/14 06:59:51;;;;;;;4.75;3.85;;;;;;;;;;2088542;28;20421;-71
2022/11/14 07:01:11;;;;;;;6.13;4.00;;;;;;;;;;2086277;28;20044;-70
2022/11/14 07:02:30;;;;;;;7.63;4.05;;;;;;;;;;2087547;28;20025;-70
2022/11/14 07:03:49;;;;;;;5.75;4.50;;;;;;;;;;2091526;28;20028;-70
2022/11/14 07:05:08;;;;;;;5.35;3.90;;;;;;;;;;2091723;28;20032;-70
2022/11/14 07:06:28;;;;;;;4.97;3.70;;;;;;;;;;2088901;28;20033;-71
2022/11/14 07:07:47;;;;;;;3.65;3.20;;;;;;;;;;2092371;28;20033;-70
2022/11/14 07:09:06;;;;;;;4.82;3.28;;;;;;;;;;2091953;28;20070;-71
2022/11/14 07:10:25;;;;;;;4.03;2.92;;;;;;;;;;2091545;28;20056;-70
2022/11/14 07:11:45;;;;;;;2.33;2.13;;;;;;;;;;2091635;28;20493;-70
2022/11/14 07:13:04;;;;;;;3.65;2.38;;;;;;;;;;2092900;28;20041;-70
2022/11/14 07:14:23;;;;;;;3.15;2.17;;;;;;;;;;2089739;28;20017;-71
2022/11/14 07:15:49;;;;;;;3.92;2.13;;;;;;;;;;2091022;28;20602;-70
2022/11/14 07:17:09;;;;;;;4.22;2.50;;;;;;;;;;2090398;28;20068;-71
2022/11/14 07:18:31;;;;;;;3.17;2.35;;;;;;;;;;2089359;28;20029;-71
2022/11/14 07:19:50;;;;;;;4.65;2.60;;;;;;;;;;2091622;28;20156;-71
2022/11/14 07:21:12;;;;;;;2.30;2.10;;;;;;;;;;2091849;28;20053;-71
2022/11/14 07:22:30;;;;;;;2.95;2.40;;;;;;;;;;2090513;28;20029;-70
2022/11/14 07:23:50;;;;;;;3.78;2.60;;;;;;;;;;2089646;28;20025;-70
2022/11/14 07:25:08;;;;;;;8.88;2.92;;;;;;;;;;2090587;28;20107;-70
2022/11/14 07:26:27;;;;;;;3.05;2.85;;;;;;;;;;2090110;28;20033;-70
2022/11/14 07:27:46;;;;;;;3.78;2.92;;;;;;;;;;2086655;28;20029;-70
2022/11/14 07:29:05;;;;;;;3.58;2.65;;;;;;;;;;2090986;28;20470;-70
2022/11/14 07:30:24;;;;;;;4.57;3.22;;;;;;;;;;2090968;28;20470;-70
2022/11/14 07:31:43;;;;;;;6.68;2.90;;;;;;;;;;2087488;28;20044;-70
2022/11/14 07:33:02;;;;;;;4.22;2.85;;;;;;;;;;2086756;28;20128;-70
2022/11/14 07:34:20;;;;;;;4.03;2.97;;;;;;;;;;2089222;28;20032;-70
2022/11/14 07:35:39;;;;;;;4.07;2.70;;;;;;;;;;2089285;28;20025;-70
2022/11/14 07:36:58;;;;;;;3.05;2.75;;;;;;;;;;2089410;28;20017;-70
2022/11/14 07:38:17;;;;;;;2.83;2.63;;;;;;;;;;2087922;28;20044;-70
2022/11/14 07:39:36;;;;;;;2.63;2.53;;;;;;;;;;2089551;28;20025;-70
2022/11/14 07:40:56;;;;;;;6.75;2.90;;;;;;;;;;2087039;28;20037;-70
2022/11/14 07:42:15;;;;;;;2.90;2.65;;;;;;;;;;2082511;28;20028;-70
2022/11/14 07:43:34;;;;;;;3.17;2.67;;;;;;;;;;2086987;28;20017;-70
2022/11/14 07:44:53;;;;;;;3.83;2.38;;;;;;;;;;2087794;28;20032;-70
2022/11/14 07:46:13;;;;;;;3.10;2.25;;;;;;;;;;2088702;28;20485;-70
2022/11/14 07:47:33;;;;;;;2.47;2.10;;;;;;;;;;2088450;28;20910;-71
2022/11/14 07:48:51;;;;;;;2.50;2.30;;;;;;;;;;2088602;28;20108;-71
2022/11/14 07:50:10;;;;;;;2.53;2.22;;;;;;;;;;2088488;28;20118;-70
2022/11/14 07:51:29;;;;;;;1.70;1.60;;;;;;;;;;2089922;28;20029;-70
2022/11/14 07:52:52;;;;;;;2.40;1.70;;;;;;;;;;2092777;28;20040;-71
2022/11/14 07:54:10;;;;;;;2.00;1.75;;;;;;;;;;2090546;28;20037;-71
2022/11/14 07:55:29;;;;;;;2.20;2.00;;;;;;;;;;2091049;28;20036;-71
2022/11/14 07:56:48;;;;;;;1.63;1.48;;;;;;;;;;2089876;28;20081;-70
2022/11/14 07:58:07;;;;;;;1.42;1.33;;;;;;;;;;2091051;28;20036;-72
2022/11/14 07:59:26;;;;;;;1.63;1.27;;;;;;;;;;2088319;28;20119;-71
2022/11/14 08:00:45;;;;;;;1.60;1.10;;;;;;;;;;2086372;28;20025;-70
2022/11/14 08:02:04;;;;;;;1.20;1.10;;;;;;;;;;2089897;28;20029;-70
2022/11/14 08:03:23;;;;;;;0.70;0.65;;;;;;;;;;2091022;28;20099;-70
2022/11/14 08:04:42;;;;;;;0.65;0.65;;;;;;;;;;2087695;28;20059;-71
2022/11/14 08:06:05;;;;;;;0.80;0.80;;;;;;;;;;2090761;28;20489;-71
2022/11/14 08:07:24;;;;;;;1.05;0.95;;;;;;;;;;2090853;28;20478;-71
2022/11/14 08:08:43;;;;;;;1.10;1.00;;;;;;;;;;2088321;28;20048;-71
2022/11/14 08:10:02;;;;;;;1.40;0.93;;;;;;;;;;2089883;28;20020;-70
2022/11/14 08:11:46;;;;;;;2.95;0.80;;;;;;;;;;2091036;28;20108;-71
2022/11/14 08:13:01;;;;;;;0.77;0.77;;;;;;;;;;2088618;28;20044;-70
2022/11/14 08:14:20;;;;;;;1.30;1.13;;;;;;;;;;2091616;28;20481;-71
2022/11/14 08:15:40;;;;;;;1.48;0.88;;;;;;;;;;2090668;28;20037;-71
2022/11/14 08:16:59;;;;;;;1.05;0.98;;;;;;;;;;2092218;28;20038;-70
2022/11/14 08:18:19;;;;;;;2.72;1.30;;;;;;;;;;2090765;28;20025;-71
2022/11/14 08:19:38;;;;;;;3.28;1.23;;;;;;;;;;2088862;28;20095;-71
2022/11/14 08:20:58;;;;;;;1.65;1.55;;;;;;;;;;2088625;28;20029;-71
2022/11/14 08:22:17;;;;;;;1.40;1.30;;;;;;;;;;2088686;28;20026;-71